Hovedside
METAR-TAF:

METAR-TAF

Lufthavner :

Liepāja internasjonale lufthavn

Liepāja, Latvia

breddegrad: 56-31N, lengdegrad: 021-05E, høyde over havet: 5 m

Gjeldene værobservasjon

Denne rapporten ble laget for 22 minutter siden, klokken 03:50 UTC
Vind 10 kt fra Vest-sørvest
Temperatur 14°C
Luftfuktighet 67%
Trykk 1010 hPa
Sikt 10 km eller mer

METAR: EVLA 230350Z AUTO 25010KT 9999 FEW057/// BKN110/// 14/08 Q1010

Tid: 07:12 (04:12 UTC)

Varsel

Denne rapporten ble laget for 2 timer og 11 minutter siden, klokken 02:01 UTC
Varsel gyldig fra 23. klokken 03 UTC til 24. klokken 03 UTC
Vind 7 kt fra Nord-nordvest
Sikt 10 km eller mer
Spredte skyer i en høyde av 3000 ft
Midlertidig
fra 23. klokken 03 UTC til 23. klokken 09 UTC
Brutte skyer i en høyde av 2000 ft, Bygeskyer.

TAF: EVLA 230201Z 2303/2403 33007KT 9999 SCT030 TEMPO 2303/2309 BKN020CB

Værobservasjoner og værvarsel for over 4000 flyplasser (METAR- og TAF-rapporter).

Tilgjengelige stasjoner er representert av de røde og gule prikkene på kartet.

Hold musepekeren over prikken for å se navnet på stasjonen.

Klikk så for å se værobservasjoner og -varsler.

For å forandre kartet kan du klikke på den grønne knappen med svart kryss for å zoome inn, på den grønne knappen med strek for å zoome ut, eller på de grønne pilene for å se tilstøtende kart.


METAR-TAF: